sensor_id;sensor_type;location;lat;lon;timestamp;P1;durP1;ratioP1;P2;durP2;ratioP2
10096;SDS011;5087;42.662;23.466;2022-10-22T00:00:43;0.40;;;0.40;;
10096;SDS011;5087;42.662;23.466;2022-10-22T00:03:10;0.40;;;0.40;;
10096;SDS011;5087;42.662;23.466;2022-10-22T00:05:37;0.70;;;0.70;;
10096;SDS011;5087;42.662;23.466;2022-10-22T00:08:05;0.50;;;0.50;;
10096;SDS011;5087;42.662;23.466;2022-10-22T00:10:33;0.60;;;0.60;;
10096;SDS011;5087;42.662;23.466;2022-10-22T00:13:02;0.90;;;0.90;;
10096;SDS011;5087;42.662;23.466;2022-10-22T00:15:30;0.60;;;0.60;;
10096;SDS011;5087;42.662;23.466;2022-10-22T00:17:58;0.60;;;0.60;;
10096;SDS011;5087;42.662;23.466;2022-10-22T00:20:25;0.70;;;0.70;;
10096;SDS011;5087;42.662;23.466;2022-10-22T00:22:52;0.90;;;0.90;;
10096;SDS011;5087;42.662;23.466;2022-10-22T00:25:19;0.80;;;0.80;;
10096;SDS011;5087;42.662;23.466;2022-10-22T00:27:47;0.80;;;0.80;;
10096;SDS011;5087;42.662;23.466;2022-10-22T00:30:15;0.80;;;0.80;;
10096;SDS011;5087;42.662;23.466;2022-10-22T00:32:42;0.70;;;0.70;;
10096;SDS011;5087;42.662;23.466;2022-10-22T00:35:09;0.60;;;0.60;;
10096;SDS011;5087;42.662;23.466;2022-10-22T00:37:36;0.60;;;0.60;;
10096;SDS011;5087;42.662;23.466;2022-10-22T00:40:04;0.30;;;0.30;;
10096;SDS011;5087;42.662;23.466;2022-10-22T00:42:31;0.40;;;0.40;;
10096;SDS011;5087;42.662;23.466;2022-10-22T00:45:02;0.60;;;0.60;;
10096;SDS011;5087;42.662;23.466;2022-10-22T00:47:40;0.80;;;0.80;;
10096;SDS011;5087;42.662;23.466;2022-10-22T00:50:10;0.47;;;0.47;;
10096;SDS011;5087;42.662;23.466;2022-10-22T00:52:40;0.73;;;0.73;;
10096;SDS011;5087;42.662;23.466;2022-10-22T00:55:08;0.50;;;0.50;;
10096;SDS011;5087;42.662;23.466;2022-10-22T00:57:35;0.50;;;0.50;;
10096;SDS011;5087;42.662;23.466;2022-10-22T01:00:05;0.50;;;0.50;;
10096;SDS011;5087;42.662;23.466;2022-10-22T01:02:33;0.60;;;0.60;;
10096;SDS011;5087;42.662;23.466;2022-10-22T01:05:00;0.47;;;0.47;;
10096;SDS011;5087;42.662;23.466;2022-10-22T01:07:28;0.60;;;0.60;;
10096;SDS011;5087;42.662;23.466;2022-10-22T01:09:59;0.50;;;0.50;;
10096;SDS011;5087;42.662;23.466;2022-10-22T01:12:37;0.50;;;0.50;;
10096;SDS011;5087;42.662;23.466;2022-10-22T01:15:14;0.60;;;0.60;;
10096;SDS011;5087;42.662;23.466;2022-10-22T01:17:49;0.50;;;0.50;;
10096;SDS011;5087;42.662;23.466;2022-10-22T01:23:40;0.70;;;0.70;;
10096;SDS011;5087;42.662;23.466;2022-10-22T01:26:35;0.60;;;0.60;;
10096;SDS011;5087;42.662;23.466;2022-10-22T01:29:11;0.50;;;0.50;;
10096;SDS011;5087;42.662;23.466;2022-10-22T01:31:43;0.70;;;0.70;;
10096;SDS011;5087;42.662;23.466;2022-10-22T01:34:14;0.50;;;0.50;;
10096;SDS011;5087;42.662;23.466;2022-10-22T01:36:44;0.43;;;0.43;;
10096;SDS011;5087;42.662;23.466;2022-10-22T01:39:12;0.50;;;0.50;;
10096;SDS011;5087;42.662;23.466;2022-10-22T01:41:42;0.47;;;0.47;;
10096;SDS011;5087;42.662;23.466;2022-10-22T01:44:22;0.30;;;0.30;;
10096;SDS011;5087;42.662;23.466;2022-10-22T01:46:54;0.40;;;0.40;;
10096;SDS011;5087;42.662;23.466;2022-10-22T01:49:32;0.33;;;0.33;;
10096;SDS011;5087;42.662;23.466;2022-10-22T01:52:09;0.23;;;0.23;;
10096;SDS011;5087;42.662;23.466;2022-10-22T01:54:49;0.20;;;0.20;;
10096;SDS011;5087;42.662;23.466;2022-10-22T01:57:22;0.20;;;0.20;;
10096;SDS011;5087;42.662;23.466;2022-10-22T02:00:00;0.20;;;0.20;;
10096;SDS011;5087;42.662;23.466;2022-10-22T02:02:33;0.30;;;0.30;;
10096;SDS011;5087;42.662;23.466;2022-10-22T02:05:06;0.20;;;0.20;;
10096;SDS011;5087;42.662;23.466;2022-10-22T02:07:39;0.30;;;0.30;;
10096;SDS011;5087;42.662;23.466;2022-10-22T02:10:10;0.20;;;0.20;;
10096;SDS011;5087;42.662;23.466;2022-10-22T02:12:39;0.20;;;0.20;;
10096;SDS011;5087;42.662;23.466;2022-10-22T02:15:10;0.30;;;0.30;;
10096;SDS011;5087;42.662;23.466;2022-10-22T02:17:39;0.30;;;0.30;;
10096;SDS011;5087;42.662;23.466;2022-10-22T02:20:12;0.20;;;0.20;;
10096;SDS011;5087;42.662;23.466;2022-10-22T02:22:43;0.20;;;0.20;;
10096;SDS011;5087;42.662;23.466;2022-10-22T02:25:10;0.20;;;0.20;;
10096;SDS011;5087;42.662;23.466;2022-10-22T02:27:39;0.50;;;0.50;;
10096;SDS011;5087;42.662;23.466;2022-10-22T02:30:11;0.20;;;0.20;;
10096;SDS011;5087;42.662;23.466;2022-10-22T02:32:42;0.60;;;0.60;;
10096;SDS011;5087;42.662;23.466;2022-10-22T02:35:16;0.20;;;0.20;;
10096;SDS011;5087;42.662;23.466;2022-10-22T02:37:46;0.50;;;0.50;;
10096;SDS011;5087;42.662;23.466;2022-10-22T02:40:15;0.20;;;0.20;;
10096;SDS011;5087;42.662;23.466;2022-10-22T02:42:43;0.20;;;0.20;;
10096;SDS011;5087;42.662;23.466;2022-10-22T02:45:16;0.73;;;0.73;;
10096;SDS011;5087;42.662;23.466;2022-10-22T02:47:45;0.20;;;0.20;;
10096;SDS011;5087;42.662;23.466;2022-10-22T02:50:12;0.30;;;0.30;;
10096;SDS011;5087;42.662;23.466;2022-10-22T02:52:40;0.30;;;0.30;;
10096;SDS011;5087;42.662;23.466;2022-10-22T02:55:07;0.30;;;0.30;;
10096;SDS011;5087;42.662;23.466;2022-10-22T02:57:34;0.20;;;0.20;;
10096;SDS011;5087;42.662;23.466;2022-10-22T03:00:02;0.73;;;0.73;;
10096;SDS011;5087;42.662;23.466;2022-10-22T03:02:34;0.30;;;0.30;;
10096;SDS011;5087;42.662;23.466;2022-10-22T03:05:02;0.30;;;0.30;;
10096;SDS011;5087;42.662;23.466;2022-10-22T03:07:29;0.23;;;0.23;;
10096;SDS011;5087;42.662;23.466;2022-10-22T03:09:56;0.30;;;0.30;;
10096;SDS011;5087;42.662;23.466;2022-10-22T03:12:23;0.30;;;0.30;;
10096;SDS011;5087;42.662;23.466;2022-10-22T03:14:51;0.50;;;0.50;;
10096;SDS011;5087;42.662;23.466;2022-10-22T03:17:18;0.30;;;0.30;;
10096;SDS011;5087;42.662;23.466;2022-10-22T03:19:46;0.30;;;0.30;;
10096;SDS011;5087;42.662;23.466;2022-10-22T03:22:14;0.40;;;0.40;;
10096;SDS011;5087;42.662;23.466;2022-10-22T03:24:46;0.50;;;0.50;;
10096;SDS011;5087;42.662;23.466;2022-10-22T03:27:16;0.33;;;0.33;;
10096;SDS011;5087;42.662;23.466;2022-10-22T03:29:45;0.40;;;0.40;;
10096;SDS011;5087;42.662;23.466;2022-10-22T03:32:13;0.30;;;0.30;;
10096;SDS011;5087;42.662;23.466;2022-10-22T03:34:40;0.30;;;0.30;;
10096;SDS011;5087;42.662;23.466;2022-10-22T03:37:09;0.73;;;0.73;;
10096;SDS011;5087;42.662;23.466;2022-10-22T03:39:36;0.40;;;0.40;;
10096;SDS011;5087;42.662;23.466;2022-10-22T03:42:04;0.50;;;0.50;;
10096;SDS011;5087;42.662;23.466;2022-10-22T03:44:33;0.40;;;0.40;;
10096;SDS011;5087;42.662;23.466;2022-10-22T03:47:02;6.87;;;2.00;;
10096;SDS011;5087;42.662;23.466;2022-10-22T03:49:29;0.50;;;0.50;;
10096;SDS011;5087;42.662;23.466;2022-10-22T03:51:56;0.50;;;0.50;;
10096;SDS011;5087;42.662;23.466;2022-10-22T03:54:25;0.50;;;0.50;;
10096;SDS011;5087;42.662;23.466;2022-10-22T03:56:52;0.50;;;0.50;;
10096;SDS011;5087;42.662;23.466;2022-10-22T03:59:21;0.60;;;0.60;;
10096;SDS011;5087;42.662;23.466;2022-10-22T04:01:48;0.70;;;0.70;;
10096;SDS011;5087;42.662;23.466;2022-10-22T04:04:15;0.60;;;0.60;;
10096;SDS011;5087;42.662;23.466;2022-10-22T04:06:43;0.57;;;0.57;;
10096;SDS011;5087;42.662;23.466;2022-10-22T04:09:10;0.57;;;0.57;;
10096;SDS011;5087;42.662;23.466;2022-10-22T04:11:38;0.50;;;0.50;;
10096;SDS011;5087;42.662;23.466;2022-10-22T04:14:06;0.60;;;0.60;;
10096;SDS011;5087;42.662;23.466;2022-10-22T04:16:33;0.80;;;0.80;;
10096;SDS011;5087;42.662;23.466;2022-10-22T04:19:00;0.50;;;0.50;;
10096;SDS011;5087;42.662;23.466;2022-10-22T04:21:27;0.60;;;0.60;;
10096;SDS011;5087;42.662;23.466;2022-10-22T04:23:54;0.50;;;0.50;;
10096;SDS011;5087;42.662;23.466;2022-10-22T04:26:22;0.63;;;0.63;;
10096;SDS011;5087;42.662;23.466;2022-10-22T04:28:51;0.60;;;0.60;;
10096;SDS011;5087;42.662;23.466;2022-10-22T04:31:19;0.40;;;0.40;;
10096;SDS011;5087;42.662;23.466;2022-10-22T04:33:51;0.60;;;0.60;;
10096;SDS011;5087;42.662;23.466;2022-10-22T04:36:19;0.50;;;0.50;;
10096;SDS011;5087;42.662;23.466;2022-10-22T04:38:46;0.50;;;0.50;;
10096;SDS011;5087;42.662;23.466;2022-10-22T04:41:19;0.50;;;0.50;;
10096;SDS011;5087;42.662;23.466;2022-10-22T04:43:47;0.40;;;0.40;;
10096;SDS011;5087;42.662;23.466;2022-10-22T04:46:16;0.40;;;0.40;;
10096;SDS011;5087;42.662;23.466;2022-10-22T04:48:44;0.40;;;0.40;;
10096;SDS011;5087;42.662;23.466;2022-10-22T04:51:14;0.50;;;0.50;;
10096;SDS011;5087;42.662;23.466;2022-10-22T04:53:43;0.60;;;0.60;;
10096;SDS011;5087;42.662;23.466;2022-10-22T04:56:11;0.70;;;0.70;;
10096;SDS011;5087;42.662;23.466;2022-10-22T04:58:41;0.60;;;0.60;;
10096;SDS011;5087;42.662;23.466;2022-10-22T05:01:10;1.03;;;1.03;;
10096;SDS011;5087;42.662;23.466;2022-10-22T05:03:40;0.60;;;0.60;;
10096;SDS011;5087;42.662;23.466;2022-10-22T05:06:07;0.40;;;0.40;;
10096;SDS011;5087;42.662;23.466;2022-10-22T05:08:35;0.50;;;0.50;;
10096;SDS011;5087;42.662;23.466;2022-10-22T05:11:09;0.80;;;0.80;;
10096;SDS011;5087;42.662;23.466;2022-10-22T05:13:37;0.50;;;0.50;;
10096;SDS011;5087;42.662;23.466;2022-10-22T05:16:04;0.90;;;0.90;;
10096;SDS011;5087;42.662;23.466;2022-10-22T05:18:32;0.60;;;0.60;;
10096;SDS011;5087;42.662;23.466;2022-10-22T05:21:13;0.50;;;0.50;;
10096;SDS011;5087;42.662;23.466;2022-10-22T05:23:49;0.60;;;0.60;;
10096;SDS011;5087;42.662;23.466;2022-10-22T05:26:18;0.50;;;0.50;;
10096;SDS011;5087;42.662;23.466;2022-10-22T05:28:46;0.97;;;0.97;;
10096;SDS011;5087;42.662;23.466;2022-10-22T05:31:14;0.60;;;0.60;;
10096;SDS011;5087;42.662;23.466;2022-10-22T05:33:43;1.77;;;1.77;;
10096;SDS011;5087;42.662;23.466;2022-10-22T05:36:16;0.90;;;0.90;;
10096;SDS011;5087;42.662;23.466;2022-10-22T05:38:46;0.70;;;0.70;;
10096;SDS011;5087;42.662;23.466;2022-10-22T05:41:15;0.93;;;0.93;;
10096;SDS011;5087;42.662;23.466;2022-10-22T05:43:44;0.70;;;0.70;;
10096;SDS011;5087;42.662;23.466;2022-10-22T05:46:14;0.70;;;0.70;;
10096;SDS011;5087;42.662;23.466;2022-10-22T05:48:43;0.70;;;0.70;;
10096;SDS011;5087;42.662;23.466;2022-10-22T05:51:11;0.60;;;0.60;;
10096;SDS011;5087;42.662;23.466;2022-10-22T05:53:40;0.80;;;0.80;;
10096;SDS011;5087;42.662;23.466;2022-10-22T05:56:10;0.60;;;0.60;;
10096;SDS011;5087;42.662;23.466;2022-10-22T05:58:38;0.90;;;0.90;;
10096;SDS011;5087;42.662;23.466;2022-10-22T06:01:07;0.70;;;0.70;;
10096;SDS011;5087;42.662;23.466;2022-10-22T06:03:38;0.50;;;0.50;;
10096;SDS011;5087;42.662;23.466;2022-10-22T06:06:09;1.70;;;1.17;;
10096;SDS011;5087;42.662;23.466;2022-10-22T06:08:46;0.87;;;0.87;;
10096;SDS011;5087;42.662;23.466;2022-10-22T06:11:14;0.63;;;0.63;;
10096;SDS011;5087;42.662;23.466;2022-10-22T06:13:42;0.50;;;0.50;;
10096;SDS011;5087;42.662;23.466;2022-10-22T06:16:09;0.70;;;0.70;;
10096;SDS011;5087;42.662;23.466;2022-10-22T06:18:37;1.57;;;1.57;;
10096;SDS011;5087;42.662;23.466;2022-10-22T06:33:16;2.10;;;2.10;;
10096;SDS011;5087;42.662;23.466;2022-10-22T06:35:44;1.70;;;1.70;;
10096;SDS011;5087;42.662;23.466;2022-10-22T06:38:13;1.40;;;1.40;;
10096;SDS011;5087;42.662;23.466;2022-10-22T06:40:40;1.47;;;1.47;;
10096;SDS011;5087;42.662;23.466;2022-10-22T06:43:09;1.33;;;1.33;;
10096;SDS011;5087;42.662;23.466;2022-10-22T06:45:39;1.40;;;1.40;;
10096;SDS011;5087;42.662;23.466;2022-10-22T06:48:07;1.90;;;1.90;;
10096;SDS011;5087;42.662;23.466;2022-10-22T06:50:36;1.80;;;1.80;;
10096;SDS011;5087;42.662;23.466;2022-10-22T06:53:03;2.10;;;2.10;;
10096;SDS011;5087;42.662;23.466;2022-10-22T06:55:30;2.10;;;2.10;;
10096;SDS011;5087;42.662;23.466;2022-10-22T06:57:58;2.87;;;2.87;;
10096;SDS011;5087;42.662;23.466;2022-10-22T07:00:25;2.60;;;2.60;;
10096;SDS011;5087;42.662;23.466;2022-10-22T07:02:52;3.40;;;3.40;;
10096;SDS011;5087;42.662;23.466;2022-10-22T07:05:33;3.67;;;3.67;;
10096;SDS011;5087;42.662;23.466;2022-10-22T07:12:03;4.47;;;4.37;;
10096;SDS011;5087;42.662;23.466;2022-10-22T07:14:32;4.10;;;4.00;;
10096;SDS011;5087;42.662;23.466;2022-10-22T07:17:00;3.83;;;3.83;;
10096;SDS011;5087;42.662;23.466;2022-10-22T07:19:27;4.30;;;4.20;;
10096;SDS011;5087;42.662;23.466;2022-10-22T07:25:50;3.97;;;3.87;;
10096;SDS011;5087;42.662;23.466;2022-10-22T07:28:19;4.20;;;4.10;;
10096;SDS011;5087;42.662;23.466;2022-10-22T07:34:01;4.80;;;4.70;;
10096;SDS011;5087;42.662;23.466;2022-10-22T07:36:28;5.13;;;5.03;;
10096;SDS011;5087;42.662;23.466;2022-10-22T07:39:07;5.23;;;5.13;;
10096;SDS011;5087;42.662;23.466;2022-10-22T07:44:56;4.50;;;4.40;;
10096;SDS011;5087;42.662;23.466;2022-10-22T07:51:02;4.73;;;4.63;;
10096;SDS011;5087;42.662;23.466;2022-10-22T07:56:53;5.27;;;5.17;;
10096;SDS011;5087;42.662;23.466;2022-10-22T08:06:39;5.70;;;5.60;;
10096;SDS011;5087;42.662;23.466;2022-10-22T08:09:06;5.30;;;5.20;;
10096;SDS011;5087;42.662;23.466;2022-10-22T08:11:34;5.10;;;5.00;;
10096;SDS011;5087;42.662;23.466;2022-10-22T08:14:01;5.37;;;5.27;;
10096;SDS011;5087;42.662;23.466;2022-10-22T08:16:33;5.20;;;5.10;;
10096;SDS011;5087;42.662;23.466;2022-10-22T08:22:48;5.40;;;5.30;;
10096;SDS011;5087;42.662;23.466;2022-10-22T08:25:15;5.00;;;4.90;;
10096;SDS011;5087;42.662;23.466;2022-10-22T08:27:44;5.50;;;5.40;;
10096;SDS011;5087;42.662;23.466;2022-10-22T08:30:12;4.57;;;4.47;;
10096;SDS011;5087;42.662;23.466;2022-10-22T08:32:40;5.10;;;5.00;;
10096;SDS011;5087;42.662;23.466;2022-10-22T08:35:08;5.00;;;4.90;;
10096;SDS011;5087;42.662;23.466;2022-10-22T08:37:35;5.20;;;5.10;;
10096;SDS011;5087;42.662;23.466;2022-10-22T08:40:05;5.20;;;5.10;;
10096;SDS011;5087;42.662;23.466;2022-10-22T08:45:54;5.50;;;5.40;;
10096;SDS011;5087;42.662;23.466;2022-10-22T08:48:35;5.40;;;5.30;;
10096;SDS011;5087;42.662;23.466;2022-10-22T08:51:10;5.80;;;5.70;;
10096;SDS011;5087;42.662;23.466;2022-10-22T08:53:43;5.37;;;5.27;;
10096;SDS011;5087;42.662;23.466;2022-10-22T08:56:22;5.97;;;5.87;;
10096;SDS011;5087;42.662;23.466;2022-10-22T08:58:50;5.43;;;5.33;;
10096;SDS011;5087;42.662;23.466;2022-10-22T09:01:28;4.80;;;4.70;;
10096;SDS011;5087;42.662;23.466;2022-10-22T09:04:08;5.17;;;5.07;;
10096;SDS011;5087;42.662;23.466;2022-10-22T09:07:01;5.03;;;4.93;;
10096;SDS011;5087;42.662;23.466;2022-10-22T09:10:07;4.90;;;4.80;;
10096;SDS011;5087;42.662;23.466;2022-10-22T09:13:43;5.10;;;5.00;;
10096;SDS011;5087;42.662;23.466;2022-10-22T09:16:13;5.03;;;4.93;;
10096;SDS011;5087;42.662;23.466;2022-10-22T09:18:45;4.60;;;4.50;;
10096;SDS011;5087;42.662;23.466;2022-10-22T09:21:23;3.90;;;3.90;;
10096;SDS011;5087;42.662;23.466;2022-10-22T09:23:57;3.90;;;3.90;;
10096;SDS011;5087;42.662;23.466;2022-10-22T09:26:30;4.30;;;4.20;;
10096;SDS011;5087;42.662;23.466;2022-10-22T09:29:02;4.60;;;4.50;;
10096;SDS011;5087;42.662;23.466;2022-10-22T09:31:30;4.20;;;4.10;;
10096;SDS011;5087;42.662;23.466;2022-10-22T09:33:59;4.90;;;4.80;;
10096;SDS011;5087;42.662;23.466;2022-10-22T09:36:31;4.20;;;4.10;;
10096;SDS011;5087;42.662;23.466;2022-10-22T09:39:00;4.10;;;4.00;;
10096;SDS011;5087;42.662;23.466;2022-10-22T09:41:28;4.13;;;4.03;;
10096;SDS011;5087;42.662;23.466;2022-10-22T09:43:56;4.50;;;4.40;;
10096;SDS011;5087;42.662;23.466;2022-10-22T09:46:26;4.60;;;4.50;;
10096;SDS011;5087;42.662;23.466;2022-10-22T09:48:59;4.30;;;4.20;;
10096;SDS011;5087;42.662;23.466;2022-10-22T09:54:20;4.07;;;3.97;;
10096;SDS011;5087;42.662;23.466;2022-10-22T09:56:53;3.60;;;3.60;;
10096;SDS011;5087;42.662;23.466;2022-10-22T09:59:27;4.20;;;4.10;;
10096;SDS011;5087;42.662;23.466;2022-10-22T10:01:59;3.73;;;3.73;;
10096;SDS011;5087;42.662;23.466;2022-10-22T10:04:32;3.10;;;3.10;;
10096;SDS011;5087;42.662;23.466;2022-10-22T10:07:02;3.50;;;3.50;;
10096;SDS011;5087;42.662;23.466;2022-10-22T10:09:41;3.33;;;3.33;;
10096;SDS011;5087;42.662;23.466;2022-10-22T10:12:12;3.30;;;3.30;;
10096;SDS011;5087;42.662;23.466;2022-10-22T10:14:51;3.40;;;3.30;;
10096;SDS011;5087;42.662;23.466;2022-10-22T10:17:28;3.10;;;3.10;;
10096;SDS011;5087;42.662;23.466;2022-10-22T10:20:10;3.20;;;3.20;;
10096;SDS011;5087;42.662;23.466;2022-10-22T10:23:02;3.57;;;3.57;;
10096;SDS011;5087;42.662;23.466;2022-10-22T10:25:37;4.10;;;4.00;;
10096;SDS011;5087;42.662;23.466;2022-10-22T10:28:24;4.20;;;4.10;;
10096;SDS011;5087;42.662;23.466;2022-10-22T10:31:05;5.00;;;4.90;;
10096;SDS011;5087;42.662;23.466;2022-10-22T10:33:43;4.40;;;4.30;;
10096;SDS011;5087;42.662;23.466;2022-10-22T10:36:22;4.40;;;4.30;;
10096;SDS011;5087;42.662;23.466;2022-10-22T10:38:59;3.80;;;3.80;;
10096;SDS011;5087;42.662;23.466;2022-10-22T10:41:32;3.47;;;3.47;;
10096;SDS011;5087;42.662;23.466;2022-10-22T10:44:14;3.40;;;3.40;;
10096;SDS011;5087;42.662;23.466;2022-10-22T10:46:54;3.23;;;3.17;;
10096;SDS011;5087;42.662;23.466;2022-10-22T10:49:33;3.03;;;3.03;;
10096;SDS011;5087;42.662;23.466;2022-10-22T10:52:06;3.30;;;3.30;;
10096;SDS011;5087;42.662;23.466;2022-10-22T10:54:45;3.60;;;3.60;;
10096;SDS011;5087;42.662;23.466;2022-10-22T10:57:24;3.80;;;3.80;;
10096;SDS011;5087;42.662;23.466;2022-10-22T11:00:09;3.93;;;3.87;;
10096;SDS011;5087;42.662;23.466;2022-10-22T11:06:08;3.50;;;3.50;;
10096;SDS011;5087;42.662;23.466;2022-10-22T11:08:39;4.30;;;4.20;;
10096;SDS011;5087;42.662;23.466;2022-10-22T11:11:10;3.60;;;3.60;;
10096;SDS011;5087;42.662;23.466;2022-10-22T11:13:44;3.30;;;3.30;;
10096;SDS011;5087;42.662;23.466;2022-10-22T11:16:19;3.90;;;3.80;;
10096;SDS011;5087;42.662;23.466;2022-10-22T11:18:52;3.00;;;3.00;;
10096;SDS011;5087;42.662;23.466;2022-10-22T11:21:27;3.43;;;3.43;;
10096;SDS011;5087;42.662;23.466;2022-10-22T11:24:01;3.70;;;3.70;;
10096;SDS011;5087;42.662;23.466;2022-10-22T11:26:40;3.20;;;3.20;;
10096;SDS011;5087;42.662;23.466;2022-10-22T11:29:13;2.90;;;2.90;;
10096;SDS011;5087;42.662;23.466;2022-10-22T11:31:43;3.67;;;3.57;;
10096;SDS011;5087;42.662;23.466;2022-10-22T11:34:13;3.40;;;3.40;;
10096;SDS011;5087;42.662;23.466;2022-10-22T11:36:46;3.00;;;3.00;;
10096;SDS011;5087;42.662;23.466;2022-10-22T11:42:04;3.50;;;3.40;;
10096;SDS011;5087;42.662;23.466;2022-10-22T11:44:44;3.00;;;3.00;;
10096;SDS011;5087;42.662;23.466;2022-10-22T11:47:17;3.10;;;3.00;;
10096;SDS011;5087;42.662;23.466;2022-10-22T11:49:54;3.20;;;3.20;;
10096;SDS011;5087;42.662;23.466;2022-10-22T11:52:37;3.10;;;3.10;;
10096;SDS011;5087;42.662;23.466;2022-10-22T11:57:59;2.60;;;2.60;;
10096;SDS011;5087;42.662;23.466;2022-10-22T12:00:32;3.17;;;3.03;;
10096;SDS011;5087;42.662;23.466;2022-10-22T12:03:14;3.00;;;2.90;;
10096;SDS011;5087;42.662;23.466;2022-10-22T12:05:42;2.60;;;2.60;;
10096;SDS011;5087;42.662;23.466;2022-10-22T12:11:05;2.60;;;2.60;;
10096;SDS011;5087;42.662;23.466;2022-10-22T12:13:52;2.80;;;2.80;;
10096;SDS011;5087;42.662;23.466;2022-10-22T12:16:27;2.80;;;2.80;;
10096;SDS011;5087;42.662;23.466;2022-10-22T12:19:03;2.60;;;2.60;;
10096;SDS011;5087;42.662;23.466;2022-10-22T12:21:38;2.80;;;2.80;;
10096;SDS011;5087;42.662;23.466;2022-10-22T12:24:10;2.70;;;2.70;;
10096;SDS011;5087;42.662;23.466;2022-10-22T12:26:40;3.13;;;3.13;;
10096;SDS011;5087;42.662;23.466;2022-10-22T12:29:11;3.20;;;3.10;;
10096;SDS011;5087;42.662;23.466;2022-10-22T12:31:40;2.70;;;2.70;;
10096;SDS011;5087;42.662;23.466;2022-10-22T12:34:12;2.70;;;2.70;;
10096;SDS011;5087;42.662;23.466;2022-10-22T12:36:41;2.70;;;2.70;;
10096;SDS011;5087;42.662;23.466;2022-10-22T12:39:11;2.57;;;2.57;;
10096;SDS011;5087;42.662;23.466;2022-10-22T12:41:43;2.40;;;2.40;;
10096;SDS011;5087;42.662;23.466;2022-10-22T12:44:12;2.50;;;2.50;;
10096;SDS011;5087;42.662;23.466;2022-10-22T12:46:41;2.30;;;2.30;;
10096;SDS011;5087;42.662;23.466;2022-10-22T12:49:13;2.50;;;2.50;;
10096;SDS011;5087;42.662;23.466;2022-10-22T12:51:43;2.50;;;2.50;;
10096;SDS011;5087;42.662;23.466;2022-10-22T12:54:25;2.60;;;2.60;;
10096;SDS011;5087;42.662;23.466;2022-10-22T12:56:55;2.93;;;2.87;;
10096;SDS011;5087;42.662;23.466;2022-10-22T12:59:25;2.70;;;2.60;;
10096;SDS011;5087;42.662;23.466;2022-10-22T13:01:54;2.10;;;2.10;;
10096;SDS011;5087;42.662;23.466;2022-10-22T13:04:30;2.20;;;2.20;;
10096;SDS011;5087;42.662;23.466;2022-10-22T13:09:37;2.23;;;2.23;;
10096;SDS011;5087;42.662;23.466;2022-10-22T13:12:05;2.30;;;2.30;;
10096;SDS011;5087;42.662;23.466;2022-10-22T13:14:35;2.60;;;2.60;;
10096;SDS011;5087;42.662;23.466;2022-10-22T13:17:08;2.10;;;2.10;;
10096;SDS011;5087;42.662;23.466;2022-10-22T13:19:46;2.50;;;2.50;;
10096;SDS011;5087;42.662;23.466;2022-10-22T13:22:26;2.60;;;2.60;;
10096;SDS011;5087;42.662;23.466;2022-10-22T13:24:57;2.17;;;2.17;;
10096;SDS011;5087;42.662;23.466;2022-10-22T13:27:26;2.40;;;2.40;;
10096;SDS011;5087;42.662;23.466;2022-10-22T13:29:54;2.60;;;2.60;;
10096;SDS011;5087;42.662;23.466;2022-10-22T13:32:26;2.50;;;2.50;;
10096;SDS011;5087;42.662;23.466;2022-10-22T13:34:58;2.50;;;2.50;;
10096;SDS011;5087;42.662;23.466;2022-10-22T13:37:27;2.40;;;2.40;;
10096;SDS011;5087;42.662;23.466;2022-10-22T13:39:58;2.30;;;2.30;;
10096;SDS011;5087;42.662;23.466;2022-10-22T13:42:26;2.33;;;2.33;;
10096;SDS011;5087;42.662;23.466;2022-10-22T13:44:54;2.37;;;2.37;;
10096;SDS011;5087;42.662;23.466;2022-10-22T13:47:24;2.50;;;2.50;;
10096;SDS011;5087;42.662;23.466;2022-10-22T13:49:53;2.13;;;2.13;;
10096;SDS011;5087;42.662;23.466;2022-10-22T13:52:26;2.60;;;2.60;;
10096;SDS011;5087;42.662;23.466;2022-10-22T13:54:55;2.47;;;2.47;;
10096;SDS011;5087;42.662;23.466;2022-10-22T13:57:23;2.60;;;2.60;;
10096;SDS011;5087;42.662;23.466;2022-10-22T13:59:51;2.30;;;2.30;;
10096;SDS011;5087;42.662;23.466;2022-10-22T14:02:18;2.00;;;2.00;;
10096;SDS011;5087;42.662;23.466;2022-10-22T14:04:48;2.30;;;2.30;;
10096;SDS011;5087;42.662;23.466;2022-10-22T14:07:17;2.93;;;2.83;;
10096;SDS011;5087;42.662;23.466;2022-10-22T14:09:44;2.23;;;2.23;;
10096;SDS011;5087;42.662;23.466;2022-10-22T14:12:11;2.30;;;2.30;;
10096;SDS011;5087;42.662;23.466;2022-10-22T14:14:42;2.10;;;2.10;;
10096;SDS011;5087;42.662;23.466;2022-10-22T14:17:12;2.30;;;2.30;;
10096;SDS011;5087;42.662;23.466;2022-10-22T14:19:42;2.43;;;2.43;;
10096;SDS011;5087;42.662;23.466;2022-10-22T14:22:14;2.30;;;2.30;;
10096;SDS011;5087;42.662;23.466;2022-10-22T14:24:42;2.37;;;2.37;;
10096;SDS011;5087;42.662;23.466;2022-10-22T14:27:10;2.20;;;2.20;;
10096;SDS011;5087;42.662;23.466;2022-10-22T14:29:38;2.30;;;2.30;;
10096;SDS011;5087;42.662;23.466;2022-10-22T14:32:11;2.63;;;2.63;;
10096;SDS011;5087;42.662;23.466;2022-10-22T14:34:40;2.00;;;2.00;;
10096;SDS011;5087;42.662;23.466;2022-10-22T14:37:12;2.17;;;2.17;;
10096;SDS011;5087;42.662;23.466;2022-10-22T14:39:43;2.30;;;2.30;;
10096;SDS011;5087;42.662;23.466;2022-10-22T14:42:16;1.90;;;1.90;;
10096;SDS011;5087;42.662;23.466;2022-10-22T14:44:44;2.30;;;2.30;;
10096;SDS011;5087;42.662;23.466;2022-10-22T14:47:13;2.27;;;2.27;;
10096;SDS011;5087;42.662;23.466;2022-10-22T14:49:40;2.50;;;2.50;;
10096;SDS011;5087;42.662;23.466;2022-10-22T14:52:07;2.10;;;2.10;;
10096;SDS011;5087;42.662;23.466;2022-10-22T14:54:34;2.07;;;2.07;;
10096;SDS011;5087;42.662;23.466;2022-10-22T14:57:02;2.20;;;2.20;;
10096;SDS011;5087;42.662;23.466;2022-10-22T14:59:29;1.90;;;1.90;;
10096;SDS011;5087;42.662;23.466;2022-10-22T15:01:56;2.10;;;2.10;;
10096;SDS011;5087;42.662;23.466;2022-10-22T15:04:25;1.77;;;1.77;;
10096;SDS011;5087;42.662;23.466;2022-10-22T15:06:52;1.93;;;1.93;;
10096;SDS011;5087;42.662;23.466;2022-10-22T15:09:21;3.23;;;3.03;;
10096;SDS011;5087;42.662;23.466;2022-10-22T15:11:49;2.00;;;2.00;;
10096;SDS011;5087;42.662;23.466;2022-10-22T15:14:16;2.90;;;2.90;;
10096;SDS011;5087;42.662;23.466;2022-10-22T15:16:43;2.77;;;2.67;;
10096;SDS011;5087;42.662;23.466;2022-10-22T15:19:10;2.20;;;2.20;;
10096;SDS011;5087;42.662;23.466;2022-10-22T15:21:39;3.87;;;3.47;;
10096;SDS011;5087;42.662;23.466;2022-10-22T15:24:06;2.30;;;2.30;;
10096;SDS011;5087;42.662;23.466;2022-10-22T15:26:33;2.40;;;2.40;;
10096;SDS011;5087;42.662;23.466;2022-10-22T15:29:01;2.10;;;2.10;;
10096;SDS011;5087;42.662;23.466;2022-10-22T15:31:42;2.30;;;2.30;;
10096;SDS011;5087;42.662;23.466;2022-10-22T15:34:11;3.53;;;3.43;;
10096;SDS011;5087;42.662;23.466;2022-10-22T15:36:40;2.40;;;2.40;;
10096;SDS011;5087;42.662;23.466;2022-10-22T15:39:07;2.40;;;2.40;;
10096;SDS011;5087;42.662;23.466;2022-10-22T15:41:36;2.50;;;2.50;;
10096;SDS011;5087;42.662;23.466;2022-10-22T15:44:03;2.77;;;2.77;;
10096;SDS011;5087;42.662;23.466;2022-10-22T15:46:31;2.80;;;2.80;;
10096;SDS011;5087;42.662;23.466;2022-10-22T15:48:59;3.73;;;3.57;;
10096;SDS011;5087;42.662;23.466;2022-10-22T15:51:26;3.57;;;3.47;;
10096;SDS011;5087;42.662;23.466;2022-10-22T15:53:55;2.70;;;2.70;;
10096;SDS011;5087;42.662;23.466;2022-10-22T15:56:24;2.90;;;2.90;;
10096;SDS011;5087;42.662;23.466;2022-10-22T15:58:53;3.20;;;3.20;;
10096;SDS011;5087;42.662;23.466;2022-10-22T16:01:25;2.90;;;2.90;;
10096;SDS011;5087;42.662;23.466;2022-10-22T16:03:53;3.70;;;3.60;;
10096;SDS011;5087;42.662;23.466;2022-10-22T16:06:26;3.00;;;3.00;;
10096;SDS011;5087;42.662;23.466;2022-10-22T16:09:00;3.30;;;3.30;;
10096;SDS011;5087;42.662;23.466;2022-10-22T16:11:29;3.20;;;3.20;;
10096;SDS011;5087;42.662;23.466;2022-10-22T16:13:57;3.83;;;3.73;;
10096;SDS011;5087;42.662;23.466;2022-10-22T16:16:26;3.40;;;3.40;;
10096;SDS011;5087;42.662;23.466;2022-10-22T16:18:55;3.70;;;3.60;;